Time;durP1;ratioP1;P1;durP2;ratioP2;P2;SDS_P1;SDS_P2;PMS_P1;PMS_P2;Temp;Humidity;BMP_temperature;BMP_pressure;BME280_temperature;BME280_humidity;BME280_pressure;Samples;Min_cycle;Max_cycle;Signal;HPM_P1;HPM_P2
2022/05/28 00:01:10;;;;;;;5.30;1.70;;;;;;;8.82;63.75;99730.06;106319;1270;25372;-74
2022/05/28 00:03:38;;;;;;;3.90;1.40;;;;;;;8.80;63.82;99725.88;106099;1273;24288;-73
2022/05/28 00:06:17;;;;;;;2.70;1.50;;;;;;;8.78;63.76;99727.30;106161;1271;22941;-73
2022/05/28 00:08:45;;;;;;;5.50;1.70;;;;;;;8.79;63.84;99730.27;106334;1270;22847;-75
2022/05/28 00:11:22;;;;;;;5.60;1.60;;;;;;;8.80;63.80;99722.18;106288;1271;24346;-78
2022/05/28 00:13:50;;;;;;;3.00;1.20;;;;;;;8.78;63.85;99725.90;106360;1270;23124;-75
2022/05/28 00:16:17;;;;;;;4.30;1.20;;;;;;;8.75;63.81;99727.51;106425;1270;22659;-72
2022/05/28 00:18:46;;;;;;;5.70;2.10;;;;;;;8.72;63.94;99735.08;107834;1271;24188;-73
2022/05/28 00:21:14;;;;;;;6.00;1.70;;;;;;;8.68;64.10;99738.30;107821;1271;22527;-73
2022/05/28 00:23:45;;;;;;;3.90;1.90;;;;;;;8.62;64.15;99732.58;108153;1271;23833;-73
2022/05/28 00:26:14;;;;;;;6.80;1.50;;;;;;;8.62;64.12;99734.33;108721;1271;25273;-73
2022/05/28 00:28:42;;;;;;;3.00;1.50;;;;;;;8.63;64.35;99727.11;108513;1270;22880;-72
2022/05/28 00:31:10;;;;;;;3.20;1.60;;;;;;;8.60;64.53;99733.66;109607;1270;22539;-76
2022/05/28 00:33:37;;;;;;;3.30;1.30;;;;;;;8.59;64.82;99731.39;109571;1271;22463;-73
2022/05/28 00:36:09;;;;;;;4.90;1.50;;;;;;;8.58;64.63;99731.59;109583;1274;22567;-79
2022/05/28 00:38:44;;;;;;;2.60;1.20;;;;;;;8.60;64.72;99739.11;109750;1273;22589;-73
2022/05/28 00:41:15;;;;;;;2.70;1.40;;;;;;;8.58;64.71;99731.39;109666;1274;22574;-74
2022/05/28 00:43:44;;;;;;;3.70;1.30;;;;;;;8.64;64.69;99739.40;109700;1274;22587;-72
2022/05/28 00:46:25;;;;;;;2.30;1.20;;;;;;;8.63;64.71;99731.88;109711;1274;22623;-75
2022/05/28 00:49:00;;;;;;;1.50;1.10;;;;;;;8.62;64.65;99731.88;109392;1274;22582;-76
2022/05/28 00:51:40;;;;;;;2.90;1.00;;;;;;;8.60;64.77;99729.98;106868;1274;24262;-74
2022/05/28 00:54:09;;;;;;;3.30;1.20;;;;;;;8.58;64.84;99726.49;106275;1270;22548;-78
2022/05/28 00:56:37;;;;;;;2.70;0.90;;;;;;;8.56;64.98;99727.38;106380;1270;22547;-74
2022/05/28 00:59:04;;;;;;;5.00;1.20;;;;;;;8.51;64.86;99720.92;106159;1271;22530;-74
2022/05/28 01:01:38;;;;;;;2.90;1.40;;;;;;;8.50;65.06;99721.63;106281;1270;22543;-74
2022/05/28 01:04:17;;;;;;;3.10;1.30;;;;;;;8.50;65.12;99723.19;106457;1271;25296;-73
2022/05/28 01:06:54;;;;;;;3.80;1.80;;;;;;;8.48;65.05;99718.49;106181;1271;23949;-73
2022/05/28 01:09:44;;;;;;;3.80;1.20;;;;;;;8.46;65.20;99714.14;106311;1270;22525;-74
2022/05/28 01:12:22;;;;;;;3.40;1.20;;;;;;;8.41;65.35;99717.85;106192;1270;22539;-74
2022/05/28 01:15:00;;;;;;;2.40;1.30;;;;;;;8.39;65.30;99708.95;106171;1271;25265;-71
2022/05/28 01:17:39;;;;;;;3.60;1.30;;;;;;;8.30;65.58;99709.04;106237;1270;26566;-72
2022/05/28 01:20:22;;;;;;;2.30;1.30;;;;;;;8.29;65.73;99709.74;106244;1271;22575;-73
2022/05/28 01:23:10;;;;;;;3.80;1.40;;;;;;;8.30;65.74;99711.66;106149;1270;22543;-73
2022/05/28 01:25:48;;;;;;;4.80;1.40;;;;;;;8.28;65.81;99707.29;105969;1271;22842;-73
2022/05/28 01:28:19;;;;;;;4.60;1.70;;;;;;;8.24;65.90;99701.91;105915;1271;22548;-71
2022/05/28 01:30:47;;;;;;;2.80;1.20;;;;;;;8.23;66.03;99708.92;105871;1271;24292;-73
2022/05/28 01:33:17;;;;;;;2.20;1.20;;;;;;;8.17;66.05;99711.62;106333;1270;25302;-76
2022/05/28 01:35:46;;;;;;;3.50;1.20;;;;;;;8.15;66.20;99706.56;106325;1270;22532;-74
2022/05/28 01:38:16;;;;;;;2.50;1.40;;;;;;;8.17;66.38;99702.15;106113;1271;22527;-71
2022/05/28 01:40:45;;;;;;;3.10;1.10;;;;;;;8.20;66.36;99698.80;106053;1272;22680;-71
2022/05/28 01:43:15;;;;;;;2.50;1.10;;;;;;;8.16;66.50;99697.77;106146;1272;22747;-70
2022/05/28 01:45:47;;;;;;;3.70;1.20;;;;;;;8.13;66.50;99690.96;106227;1270;22531;-76
2022/05/28 01:48:17;;;;;;;2.80;1.20;;;;;;;8.12;66.57;99697.46;106237;1272;25252;-72
2022/05/28 01:50:47;;;;;;;3.80;1.60;;;;;;;8.10;66.68;99700.30;106296;1270;25436;-72
2022/05/28 01:56:06;;;;;;;5.90;1.10;;;;;;;8.08;66.93;99693.46;106318;1270;22566;-73
2022/05/28 01:58:33;;;;;;;4.20;1.50;;;;;;;8.08;67.00;99696.10;106354;1271;22766;-72
2022/05/28 02:01:03;;;;;;;3.10;1.30;;;;;;;8.09;67.05;99688.55;106156;1273;22849;-72
2022/05/28 02:03:32;;;;;;;2.30;1.10;;;;;;;8.09;66.99;99691.54;106167;1271;24224;-75
2022/05/28 02:05:59;;;;;;;2.10;1.10;;;;;;;8.04;67.12;99691.93;106167;1271;23199;-73
2022/05/28 02:08:29;;;;;;;3.40;1.00;;;;;;;8.04;67.28;99690.89;105979;1271;22684;-72
2022/05/28 02:11:12;;;;;;;2.80;1.10;;;;;;;8.03;67.28;99688.96;106146;1271;22554;-74
2022/05/28 02:14:00;;;;;;;4.40;1.50;;;;;;;8.02;67.43;99690.73;106274;1272;22685;-73
2022/05/28 02:16:37;;;;;;;5.00;1.60;;;;;;;8.02;67.54;99686.33;106177;1273;22530;-73
2022/05/28 02:19:10;;;;;;;4.70;1.20;;;;;;;8.01;67.59;99684.77;106177;1271;22557;-77
2022/05/28 02:21:55;;;;;;;5.50;1.30;;;;;;;8.01;67.56;99681.96;106174;1270;22521;-76
2022/05/28 02:24:30;;;;;;;4.60;1.90;;;;;;;8.02;67.69;99675.13;106180;1270;22559;-77
2022/05/28 02:27:09;;;;;;;2.60;1.10;;;;;;;8.01;67.72;99674.95;105973;1271;24381;-85
2022/05/28 02:29:37;;;;;;;5.50;1.40;;;;;;;8.04;67.78;99675.27;106310;1269;25603;-73
2022/05/28 02:32:20;;;;;;;6.40;2.30;;;;;;;8.03;67.79;99671.95;106198;1271;22534;-75
2022/05/28 02:34:50;;;;;;;3.50;1.30;;;;;;;8.04;67.81;99671.76;106028;1272;24317;-75
2022/05/28 02:37:23;;;;;;;5.20;1.50;;;;;;;8.04;67.80;99673.35;106148;1271;25368;-71
2022/05/28 02:39:50;;;;;;;6.40;1.10;;;;;;;8.05;67.79;99674.92;106098;1271;25377;-74
2022/05/28 02:42:18;;;;;;;4.10;1.30;;;;;;;8.06;67.78;99670.70;106239;1271;25248;-71
2022/05/28 02:44:46;;;;;;;4.50;1.70;;;;;;;8.07;67.78;99663.67;106056;1271;24228;-74
2022/05/28 02:47:13;;;;;;;9.00;1.90;;;;;;;8.10;67.74;99665.57;106206;1271;25244;-73
2022/05/28 02:49:40;;;;;;;3.40;0.90;;;;;;;8.10;67.78;99665.23;106197;1270;22699;-75
2022/05/28 02:52:07;;;;;;;5.70;1.10;;;;;;;8.09;67.80;99665.58;106304;1271;25234;-74
2022/05/28 02:54:35;;;;;;;1.70;1.10;;;;;;;8.08;67.81;99657.88;106228;1270;25302;-73
2022/05/28 02:57:04;;;;;;;4.00;1.60;;;;;;;8.08;67.89;99661.55;106274;1271;25100;-76
2022/05/28 02:59:31;;;;;;;4.00;1.40;;;;;;;8.12;67.96;99659.58;106270;1270;25246;-75
2022/05/28 03:01:58;;;;;;;2.30;1.20;;;;;;;8.17;67.98;99659.18;106291;1270;22490;-73
2022/05/28 03:04:26;;;;;;;5.70;1.10;;;;;;;8.23;67.88;99657.89;106427;1270;25393;-73
2022/05/28 03:06:52;;;;;;;3.80;1.50;;;;;;;8.27;67.92;99662.23;106092;1271;25357;-73
2022/05/28 03:09:19;;;;;;;3.70;1.40;;;;;;;8.29;67.74;99657.98;106341;1271;24274;-75
2022/05/28 03:11:46;;;;;;;3.60;1.20;;;;;;;8.34;67.75;99669.70;106331;1270;25462;-74
2022/05/28 03:14:13;;;;;;;1.80;0.80;;;;;;;8.35;67.71;99668.98;106296;1271;22478;-72
2022/05/28 03:16:42;;;;;;;5.40;1.20;;;;;;;8.36;67.72;99666.52;106340;1271;22547;-75
2022/05/28 03:19:10;;;;;;;4.60;1.40;;;;;;;8.39;67.74;99662.96;106412;1270;24087;-77
2022/05/28 03:21:38;;;;;;;6.20;1.50;;;;;;;8.44;67.81;99662.56;106191;1271;22782;-77
2022/05/28 03:24:07;;;;;;;3.70;1.20;;;;;;;8.47;67.69;99660.06;106426;1273;22639;-73
2022/05/28 03:26:35;;;;;;;5.30;1.40;;;;;;;8.48;67.74;99652.86;106382;1270;23068;-74
2022/05/28 03:29:02;;;;;;;2.90;1.30;;;;;;;8.58;67.56;99663.48;106318;1270;22538;-89
2022/05/28 03:31:29;;;;;;;3.90;1.40;;;;;;;8.62;67.47;99663.08;106270;1270;25307;-75
2022/05/28 03:33:57;;;;;;;2.30;1.30;;;;;;;8.63;67.54;99656.22;106245;1273;25365;-74
2022/05/28 03:36:26;;;;;;;5.80;1.40;;;;;;;8.62;67.56;99656.94;106450;1270;22519;-76
2022/05/28 03:38:52;;;;;;;4.50;1.60;;;;;;;8.66;67.62;99658.10;106333;1270;22537;-81
2022/05/28 03:41:20;;;;;;;3.60;1.60;;;;;;;8.69;67.41;99655.61;106267;1273;22874;-80
2022/05/28 03:43:46;;;;;;;3.70;1.30;;;;;;;8.69;67.35;99660.54;106279;1270;22834;-79
2022/05/28 03:46:23;;;;;;;1.60;0.90;;;;;;;8.69;67.50;99658.23;106273;1270;23018;-83
2022/05/28 03:48:53;;;;;;;2.80;1.10;;;;;;;8.73;67.40;99653.45;106244;1271;22584;-82
2022/05/28 03:51:20;;;;;;;8.00;1.70;;;;;;;8.75;67.34;99651.31;106333;1270;23924;-86
2022/05/28 03:53:47;;;;;;;4.90;1.50;;;;;;;8.81;67.39;99662.30;106382;1271;22765;-87
2022/05/28 03:56:14;;;;;;;1.30;1.10;;;;;;;8.82;67.33;99650.54;106343;1270;22557;-85
2022/05/28 03:58:42;;;;;;;3.80;1.40;;;;;;;8.85;67.32;99655.76;106362;1271;25241;-81
2022/05/28 04:01:09;;;;;;;3.80;1.40;;;;;;;8.88;67.41;99655.71;106195;1271;22598;-83
2022/05/28 04:03:36;;;;;;;1.30;1.10;;;;;;;8.90;67.67;99660.23;106327;1271;22499;-86
2022/05/28 04:06:04;;;;;;;4.20;1.60;;;;;;;8.89;68.03;99653.94;106383;1270;22550;-79
2022/05/28 04:08:31;;;;;;;4.80;1.70;;;;;;;8.89;68.49;99661.99;106524;1271;22616;-80
2022/05/28 04:10:57;;;;;;;5.90;1.60;;;;;;;8.87;68.52;99666.61;106399;1271;22531;-81
2022/05/28 04:13:24;;;;;;;2.90;1.40;;;;;;;8.79;68.67;99664.95;106441;1271;23877;-79
2022/05/28 04:15:51;;;;;;;5.90;1.10;;;;;;;8.78;68.59;99662.70;106764;1270;22838;-93
2022/05/28 04:18:18;;;;;;;2.50;1.10;;;;;;;8.75;68.96;99660.27;107050;1271;25300;-85
2022/05/28 04:20:45;;;;;;;2.90;1.00;;;;;;;8.75;68.99;99663.08;106548;1270;22531;-87
2022/05/28 04:23:12;;;;;;;2.20;1.10;;;;;;;8.79;69.08;99660.58;106435;1272;24388;-78
2022/05/28 04:25:39;;;;;;;2.50;1.30;;;;;;;8.83;69.05;99659.64;106909;1271;22568;-80
2022/05/28 04:28:06;;;;;;;1.50;1.00;;;;;;;8.83;68.98;99663.86;107087;1273;25251;-85
2022/05/28 04:30:33;;;;;;;2.30;1.10;;;;;;;8.84;68.94;99665.08;107320;1273;22529;-84
2022/05/28 04:33:00;;;;;;;5.70;1.60;;;;;;;8.89;68.88;99667.27;107338;1271;22707;-83
2022/05/28 04:35:27;;;;;;;2.20;1.10;;;;;;;8.92;68.79;99657.40;107208;1271;25262;-83
2022/05/28 04:37:55;;;;;;;3.50;1.30;;;;;;;8.98;68.56;99658.73;107349;1273;22573;-84
2022/05/28 04:40:22;;;;;;;3.20;1.20;;;;;;;9.00;68.57;99656.77;107611;1271;22528;-84
2022/05/28 04:42:49;;;;;;;5.30;2.10;;;;;;;9.07;68.29;99654.55;107668;1271;22502;-83
2022/05/28 04:45:16;;;;;;;5.80;1.80;;;;;;;9.14;68.11;99655.69;107844;1272;22615;-86
2022/05/28 04:47:43;;;;;;;4.30;1.30;;;;;;;9.23;68.17;99652.23;107851;1271;25529;-90
2022/05/28 04:50:10;;;;;;;5.60;1.70;;;;;;;9.29;67.97;99658.09;107875;1272;22566;-85
2022/05/28 04:52:38;;;;;;;2.30;1.20;;;;;;;9.34;67.65;99657.84;108295;1271;22544;-85
2022/05/28 04:55:07;;;;;;;3.30;1.30;;;;;;;9.36;67.27;99659.22;108254;1271;24426;-84
2022/05/28 04:57:34;;;;;;;3.50;1.40;;;;;;;9.38;67.08;99661.65;108128;1271;22528;-83
2022/05/28 05:00:01;;;;;;;3.90;1.10;;;;;;;9.38;66.92;99667.09;108299;1271;22957;-83
2022/05/28 05:02:28;;;;;;;5.80;1.10;;;;;;;9.40;66.92;99669.89;108587;1271;22624;-79
2022/05/28 05:04:58;;;;;;;1.40;1.00;;;;;;;9.48;67.16;99669.39;108440;1271;24209;-79
2022/05/28 05:07:25;;;;;;;3.00;1.10;;;;;;;9.56;66.65;99666.80;107128;1271;22702;-77
2022/05/28 05:09:52;;;;;;;5.40;1.50;;;;;;;9.60;66.61;99670.08;107956;1271;22589;-82
2022/05/28 05:12:19;;;;;;;2.90;1.30;;;;;;;9.64;66.34;99665.80;107881;1271;22597;-81
2022/05/28 05:14:46;;;;;;;2.70;1.20;;;;;;;9.66;66.21;99663.31;108081;1272;22570;-81
2022/05/28 05:17:13;;;;;;;2.80;1.30;;;;;;;9.70;66.18;99671.15;108003;1271;22477;-81
2022/05/28 05:19:40;;;;;;;2.60;1.20;;;;;;;9.70;65.89;99661.46;108560;1273;23102;-81
2022/05/28 05:22:07;;;;;;;4.50;1.30;;;;;;;9.75;65.85;99664.75;108494;1271;22635;-83
2022/05/28 05:24:34;;;;;;;3.00;1.00;;;;;;;9.81;65.64;99665.68;107181;1271;22524;-82
2022/05/28 05:27:02;;;;;;;3.80;1.10;;;;;;;9.84;65.50;99663.16;106871;1272;22495;-83
2022/05/28 05:29:29;;;;;;;2.20;1.20;;;;;;;9.90;65.22;99665.52;107199;1271;22541;-81
2022/05/28 05:31:56;;;;;;;2.30;1.20;;;;;;;9.91;64.98;99668.85;107239;1273;22528;-83
2022/05/28 05:34:23;;;;;;;6.00;1.60;;;;;;;9.94;65.13;99665.45;107135;1273;22586;-84
2022/05/28 05:36:50;;;;;;;2.30;1.40;;;;;;;9.98;64.84;99659.21;106944;1273;22519;-84
2022/05/28 05:39:17;;;;;;;5.10;1.40;;;;;;;10.00;64.73;99663.93;107140;1272;22570;-84
2022/05/28 05:41:44;;;;;;;3.40;1.30;;;;;;;10.02;64.53;99661.08;107746;1272;24227;-84
2022/05/28 05:44:12;;;;;;;5.30;1.80;;;;;;;10.05;64.43;99664.91;108071;1272;22547;-83
2022/05/28 05:46:43;;;;;;;3.80;1.40;;;;;;;10.08;64.19;99663.27;108006;1272;24321;-83
2022/05/28 05:49:11;;;;;;;3.20;1.80;;;;;;;10.07;64.13;99662.57;107506;1272;22472;-83
2022/05/28 05:51:42;;;;;;;6.80;2.00;;;;;;;10.08;64.32;99660.63;107585;1271;25379;-82
2022/05/28 05:54:09;;;;;;;2.10;1.10;;;;;;;10.11;64.23;99664.80;107806;1271;22551;-82
2022/05/28 05:56:37;;;;;;;2.80;1.50;;;;;;;10.13;64.06;99665.11;108313;1271;24256;-83
2022/05/28 05:59:03;;;;;;;8.50;2.20;;;;;;;10.11;63.53;99662.16;108316;1273;22596;-82
2022/05/28 06:01:31;;;;;;;5.00;1.90;;;;;;;10.07;63.47;99667.16;108283;1271;22478;-82
2022/05/28 06:03:58;;;;;;;2.00;1.70;;;;;;;10.03;63.10;99661.23;108256;1271;22539;-82
2022/05/28 06:06:26;;;;;;;3.50;2.00;;;;;;;10.02;62.99;99668.83;108262;1271;26569;-83
2022/05/28 06:08:53;;;;;;;3.60;1.80;;;;;;;10.02;63.05;99654.05;108118;1273;22565;-81
2022/05/28 06:11:20;;;;;;;3.40;1.70;;;;;;;10.09;63.11;99669.58;108087;1274;22571;-82
2022/05/28 06:13:47;;;;;;;2.70;1.50;;;;;;;10.13;62.47;99654.53;108193;1276;22543;-81
2022/05/28 06:16:14;;;;;;;3.90;1.70;;;;;;;10.22;62.44;99658.27;108346;1276;22614;-81
2022/05/28 06:18:42;;;;;;;3.00;1.50;;;;;;;10.32;62.27;99656.83;108343;1274;22391;-82
2022/05/28 06:21:08;;;;;;;4.50;1.60;;;;;;;10.36;61.90;99656.21;108147;1275;24461;-83
2022/05/28 06:23:35;;;;;;;3.80;1.30;;;;;;;10.34;61.47;99655.73;107434;1276;22687;-83
2022/05/28 06:26:06;;;;;;;3.90;1.60;;;;;;;10.28;61.23;99660.42;107049;1276;22502;-83
2022/05/28 06:28:33;;;;;;;2.30;1.30;;;;;;;10.28;61.01;99651.81;107221;1276;22750;-82
2022/05/28 06:31:02;;;;;;;3.80;1.40;;;;;;;10.29;60.61;99645.45;107260;1272;23840;-83
2022/05/28 06:33:29;;;;;;;2.70;1.40;;;;;;;10.32;60.54;99654.71;107630;1273;22546;-83
2022/05/28 06:35:58;;;;;;;7.40;2.50;;;;;;;10.36;60.04;99655.52;107642;1272;24477;-82
2022/05/28 06:38:25;;;;;;;3.10;1.20;;;;;;;10.36;59.68;99653.41;107191;1273;24230;-82
2022/05/28 06:40:53;;;;;;;3.40;1.50;;;;;;;10.33;59.81;99650.13;107116;1272;22610;-82
2022/05/28 06:43:20;;;;;;;1.60;1.20;;;;;;;10.37;59.93;99654.61;107201;1273;22818;-82
2022/05/28 06:45:48;;;;;;;3.20;1.60;;;;;;;10.47;59.17;99639.65;107186;1273;25374;-83
2022/05/28 06:48:15;;;;;;;4.90;1.20;;;;;;;10.54;58.78;99656.06;106994;1270;25352;-82
2022/05/28 06:51:01;;;;;;;6.70;1.50;;;;;;;10.57;58.46;99644.90;107112;1272;24214;-81
2022/05/28 06:53:41;;;;;;;6.00;1.50;;;;;;;10.61;58.04;99645.35;107297;1272;25358;-82
2022/05/28 06:56:11;;;;;;;4.00;1.10;;;;;;;10.65;57.09;99646.85;107220;1273;22643;-82
2022/05/28 06:58:39;;;;;;;4.20;1.50;;;;;;;10.61;56.69;99650.28;107327;1273;22476;-83
2022/05/28 07:01:09;;;;;;;1.60;1.00;;;;;;;10.64;56.51;99642.29;107259;1273;22683;-82
2022/05/28 07:03:38;;;;;;;3.80;1.10;;;;;;;10.71;56.94;99646.75;107213;1273;22590;-83
2022/05/28 07:06:05;;;;;;;3.70;1.10;;;;;;;10.78;56.62;99646.59;107465;1273;24155;-83
2022/05/28 07:08:32;;;;;;;3.50;1.10;;;;;;;10.79;56.70;99646.55;108091;1273;22608;-83
2022/05/28 07:11:01;;;;;;;4.00;1.20;;;;;;;10.76;56.54;99648.56;108219;1273;25282;-83
2022/05/28 07:13:30;;;;;;;1.60;1.00;;;;;;;10.76;56.72;99640.64;107820;1273;22683;-83
2022/05/28 07:15:57;;;;;;;3.60;1.20;;;;;;;10.84;56.27;99650.48;108083;1273;22716;-82
2022/05/28 07:18:25;;;;;;;1.60;1.00;;;;;;;10.83;55.38;99637.48;107653;1273;24253;-82
2022/05/28 07:20:52;;;;;;;5.90;1.10;;;;;;;10.76;55.00;99634.12;107588;1273;22564;-80
2022/05/28 07:23:25;;;;;;;2.70;0.90;;;;;;;10.73;54.76;99641.77;106654;1271;25215;-82
2022/05/28 07:26:03;;;;;;;3.00;0.90;;;;;;;10.67;54.37;99647.52;106491;1270;22553;-83
2022/05/28 07:28:33;;;;;;;2.90;1.00;;;;;;;10.62;54.69;99649.38;106381;1270;25525;-84
2022/05/28 07:31:02;;;;;;;3.50;1.30;;;;;;;10.59;55.04;99640.81;106412;1270;24237;-84
2022/05/28 07:33:31;;;;;;;1.80;1.10;;;;;;;10.59;55.04;99646.98;106497;1270;22687;-84
2022/05/28 07:36:00;;;;;;;5.40;1.50;;;;;;;10.56;55.06;99648.63;106365;1270;25334;-82
2022/05/28 07:38:30;;;;;;;7.50;1.20;;;;;;;10.54;55.25;99651.48;106209;1274;25244;-83
2022/05/28 07:41:04;;;;;;;5.50;1.20;;;;;;;10.51;55.80;99644.68;106089;1274;22959;-82
2022/05/28 07:43:32;;;;;;;3.90;1.10;;;;;;;10.60;56.24;99645.92;106095;1274;24225;-82
2022/05/28 07:46:00;;;;;;;6.40;1.40;;;;;;;10.80;56.16;99643.02;105716;1275;24114;-84
2022/05/28 07:48:28;;;;;;;2.60;1.00;;;;;;;10.98;55.79;99642.42;106098;1274;25460;-83
2022/05/28 07:50:55;;;;;;;4.80;1.10;;;;;;;11.14;55.27;99639.27;105797;1280;25409;-83
2022/05/28 07:53:21;;;;;;;3.90;1.10;;;;;;;11.29;54.84;99643.83;105672;1280;22540;-83
2022/05/28 07:55:49;;;;;;;5.90;1.30;;;;;;;11.38;54.78;99638.16;105800;1279;25383;-82
2022/05/28 07:58:19;;;;;;;3.60;1.00;;;;;;;11.47;54.82;99634.41;105761;1276;22598;-81
2022/05/28 08:00:49;;;;;;;3.90;1.30;;;;;;;11.51;54.55;99630.10;105929;1276;22907;-84
2022/05/28 08:03:17;;;;;;;3.70;1.50;;;;;;;11.61;54.23;99644.66;106068;1278;22545;-81
2022/05/28 08:05:47;;;;;;;4.50;2.10;;;;;;;11.67;52.04;99643.95;106136;1276;22559;-83
2022/05/28 08:08:16;;;;;;;4.70;2.10;;;;;;;11.68;50.14;99651.02;106031;1275;22522;-84
2022/05/28 08:10:43;;;;;;;5.30;2.20;;;;;;;11.73;49.71;99639.93;106365;1270;22746;-83
2022/05/28 08:13:14;;;;;;;3.30;2.10;;;;;;;11.77;49.65;99634.01;106376;1270;23939;-83
2022/05/28 08:15:44;;;;;;;4.70;1.90;;;;;;;11.87;50.13;99632.87;106386;1270;23971;-81
2022/05/28 08:18:13;;;;;;;3.20;1.40;;;;;;;12.02;49.79;99642.19;106222;1273;25524;-84
2022/05/28 08:23:26;;;;;;;3.00;1.60;;;;;;;12.10;49.35;99631.58;106147;1273;24321;-85
2022/05/28 08:25:53;;;;;;;2.70;1.30;;;;;;;12.17;48.97;99628.76;106011;1271;24184;-81
2022/05/28 08:28:21;;;;;;;3.60;1.30;;;;;;;12.24;49.49;99625.90;106145;1271;24365;-82
2022/05/28 08:30:48;;;;;;;5.40;1.30;;;;;;;12.42;49.28;99630.00;106211;1271;22541;-82
2022/05/28 08:33:18;;;;;;;2.80;1.20;;;;;;;12.35;49.34;99630.18;105613;1277;24532;-82
2022/05/28 08:35:47;;;;;;;4.60;1.10;;;;;;;12.24;50.62;99633.33;105764;1279;23942;-82
2022/05/28 08:38:20;;;;;;;5.90;1.40;;;;;;;12.10;51.11;99628.92;105849;1280;24241;-83
2022/05/28 08:40:54;;;;;;;3.10;1.30;;;;;;;11.92;51.54;99642.96;105796;1277;22541;-83
2022/05/28 08:43:23;;;;;;;4.90;2.00;;;;;;;11.77;52.24;99637.20;105813;1277;23965;-83
2022/05/28 08:45:51;;;;;;;3.70;1.50;;;;;;;11.71;52.84;99635.41;105775;1277;22654;-83
2022/05/28 08:48:26;;;;;;;6.30;1.80;;;;;;;11.80;53.33;99633.06;106032;1277;24824;-82
2022/05/28 08:51:16;;;;;;;5.00;1.50;;;;;;;11.84;52.96;99623.77;105832;1271;22571;-84
2022/05/28 08:54:01;;;;;;;6.00;1.50;;;;;;;11.89;52.40;99627.53;106266;1270;25349;-85
2022/05/28 08:56:29;;;;;;;6.00;1.20;;;;;;;11.79;51.96;99622.84;106153;1271;25321;-86
2022/05/28 08:59:16;;;;;;;3.60;1.30;;;;;;;11.80;52.24;99623.86;106278;1270;22842;-84
2022/05/28 09:01:44;;;;;;;3.50;1.40;;;;;;;12.06;51.73;99632.71;106174;1271;23945;-84
2022/05/28 09:04:18;;;;;;;3.00;1.30;;;;;;;12.28;49.61;99617.67;106270;1271;24281;-83
2022/05/28 09:06:51;;;;;;;3.40;0.70;;;;;;;12.47;48.53;99626.83;106245;1271;24075;-82
2022/05/28 09:09:18;;;;;;;3.20;1.10;;;;;;;12.49;47.90;99629.26;106190;1271;24193;-83
2022/05/28 09:12:00;;;;;;;7.50;1.40;;;;;;;12.43;47.53;99640.57;106152;1271;22529;-83
2022/05/28 09:14:29;;;;;;;4.90;1.50;;;;;;;12.37;47.63;99649.91;106200;1274;22525;-84
2022/05/28 09:17:02;;;;;;;5.50;1.70;;;;;;;12.13;48.32;99637.50;105599;1279;24191;-83
2022/05/28 09:19:36;;;;;;;3.40;1.00;;;;;;;12.07;49.06;99636.23;105869;1276;22559;-81
2022/05/28 09:22:03;;;;;;;4.70;1.30;;;;;;;12.13;48.72;99624.42;105932;1276;22535;-83
2022/05/28 09:24:33;;;;;;;5.20;1.60;;;;;;;12.24;49.18;99630.49;105738;1278;25260;-88
2022/05/28 09:27:29;;;;;;;4.50;0.90;;;;;;;12.46;49.65;99625.11;105791;1278;22558;-84
2022/05/28 09:29:59;;;;;;;;;;;;;;;12.81;48.80;99622.30;105664;1280;25305;-83
2022/05/28 09:32:28;;;;;;;5.40;1.70;;;;;;;13.05;48.10;99613.95;105470;1281;22693;-79
2022/05/28 09:35:07;;;;;;;4.00;1.60;;;;;;;13.18;46.83;99625.59;105692;1274;22658;-83
2022/05/28 09:37:59;;;;;;;4.30;1.20;;;;;;;13.01;45.95;99619.21;106169;1277;22710;-84
2022/05/28 09:40:46;;;;;;;5.10;1.40;;;;;;;12.81;46.21;99626.73;105990;1279;25387;-81
2022/05/28 09:43:35;;;;;;;2.70;1.20;;;;;;;12.64;46.61;99624.38;105608;1279;22538;-84
2022/05/28 09:46:06;;;;;;;2.20;1.00;;;;;;;12.57;46.87;99618.77;105937;1280;26495;-83
2022/05/28 09:48:33;;;;;;;3.10;1.00;;;;;;;12.55;46.91;99612.82;105346;1284;24245;-84
2022/05/28 09:51:00;;;;;;;3.90;0.90;;;;;;;12.44;47.41;99606.63;105403;1284;24249;-84
2022/05/28 09:56:26;;;;;;;5.60;1.40;;;;;;;12.37;48.25;99612.64;105380;1284;22687;-80
2022/05/28 09:58:54;;;;;;;3.60;1.20;;;;;;;12.63;48.53;99615.24;105799;1276;22646;-82
2022/05/28 10:01:24;;;;;;;2.00;0.80;;;;;;;12.94;48.12;99613.23;105990;1278;22529;-81
2022/05/28 10:06:53;;;;;;;5.10;1.70;;;;;;;13.30;47.05;99603.27;106269;1272;22518;-83
2022/05/28 10:09:23;;;;;;;5.60;1.50;;;;;;;13.32;47.51;99604.44;106366;1274;25309;-79
2022/05/28 10:11:56;;;;;;;4.00;1.20;;;;;;;13.31;48.42;99652.23;106280;1272;25457;-80
2022/05/28 10:14:24;;;;;;;6.60;1.10;;;;;;;13.34;49.22;99637.61;106314;1272;22473;-83
2022/05/28 10:16:58;;;;;;;3.20;0.90;;;;;;;13.39;49.28;99651.09;106422;1271;25289;-82
2022/05/28 10:19:41;;;;;;;2.70;1.00;;;;;;;13.37;48.43;99660.49;106432;1271;25377;-81
2022/05/28 10:22:19;;;;;;;3.80;1.00;;;;;;;13.34;48.55;99660.95;106429;1273;23283;-82
2022/05/28 10:24:50;;;;;;;3.00;1.10;;;;;;;12.98;48.59;99663.66;106350;1271;22545;-82
2022/05/28 10:27:41;;;;;;;2.30;0.80;;;;;;;12.62;49.18;99652.73;106269;1273;25254;-82
2022/05/28 10:30:24;;;;;;;2.00;0.80;;;;;;;12.37;50.34;99650.44;106094;1276;24270;-85
2022/05/28 10:32:52;;;;;;;3.60;1.10;;;;;;;12.28;51.62;99649.45;106064;1276;25256;-81
2022/05/28 10:35:28;;;;;;;3.30;1.00;;;;;;;12.37;52.34;99662.25;105842;1279;25496;-84
2022/05/28 10:38:16;;;;;;;5.00;1.10;;;;;;;12.45;52.09;99651.44;105986;1276;22537;-83
2022/05/28 10:40:53;;;;;;;1.50;0.80;;;;;;;12.44;52.52;99659.08;106094;1276;22550;-84
2022/05/28 10:43:36;;;;;;;4.10;1.50;;;;;;;12.46;51.79;99653.02;106129;1276;23936;-82
2022/05/28 10:46:22;;;;;;;4.60;1.00;;;;;;;12.36;51.55;99663.88;106223;1276;22768;-83
2022/05/28 10:49:03;;;;;;;0.60;0.60;;;;;;;12.35;51.33;99657.55;106205;1271;26502;-84
2022/05/28 10:51:41;;;;;;;4.10;1.00;;;;;;;12.34;51.14;99657.73;106337;1270;25232;-81
2022/05/28 10:54:23;;;;;;;3.20;1.10;;;;;;;12.35;51.30;99657.88;106079;1271;25370;-82
2022/05/28 10:57:52;;;;;;;5.60;1.40;;;;;;;12.32;51.65;99651.30;106138;1271;22711;-82
2022/05/28 11:00:26;;;;;;;3.20;1.20;;;;;;;12.31;52.06;99655.90;105726;1273;24219;-83
2022/05/28 11:02:56;;;;;;;1.70;1.00;;;;;;;12.32;52.38;99662.95;106580;1271;23082;-83
2022/05/28 11:05:49;;;;;;;4.30;1.40;;;;;;;12.20;52.85;99657.80;106164;1277;22555;-84
2022/05/28 11:08:40;;;;;;;3.80;1.00;;;;;;;12.08;53.24;99672.04;106092;1276;22559;-84
2022/05/28 11:11:33;;;;;;;2.50;0.90;;;;;;;11.90;52.66;99672.65;106319;1277;26477;-84
2022/05/28 11:14:22;;;;;;;2.50;1.00;;;;;;;11.73;52.58;99681.56;106027;1276;22528;-81
2022/05/28 11:16:57;;;;;;;2.90;0.70;;;;;;;11.64;52.12;99682.48;106544;1276;22553;-82
2022/05/28 11:19:46;;;;;;;5.80;0.90;;;;;;;11.64;51.21;99688.32;106327;1277;22537;-82
2022/05/28 11:22:37;;;;;;;2.40;0.80;;;;;;;11.77;51.09;99690.45;106075;1278;22544;-83
2022/05/28 11:25:30;;;;;;;1.90;0.70;;;;;;;11.96;51.01;99696.86;106115;1271;22526;-82
2022/05/28 11:28:15;;;;;;;4.60;3.00;;;;;;;12.05;50.63;99684.64;106040;1271;25487;-83
2022/05/28 11:30:47;;;;;;;1.20;0.60;;;;;;;12.25;50.71;99676.19;106387;1271;22919;-83
2022/05/28 11:33:18;;;;;;;0.90;0.50;;;;;;;12.44;50.71;99677.07;106468;1271;25536;-82
2022/05/28 11:36:07;;;;;;;0.70;0.50;;;;;;;12.48;50.15;99677.14;106038;1275;25259;-82
2022/05/28 11:38:53;;;;;;;2.90;1.40;;;;;;;12.22;50.88;99681.02;106068;1271;278644;-83
2022/05/28 11:41:34;;;;;;;0.80;0.70;;;;;;;12.06;51.64;99679.31;106106;1271;22569;-84
2022/05/28 11:44:32;;;;;;;1.90;0.60;;;;;;;11.83;52.83;99687.83;106284;1271;22550;-85
2022/05/28 11:47:26;;;;;;;0.60;0.60;;;;;;;11.56;53.54;99676.35;106301;1271;25313;-80
2022/05/28 11:53:15;;;;;;;0.70;0.50;;;;;;;11.34;55.83;99664.52;106320;1271;26634;-83
2022/05/28 11:55:45;;;;;;;1.80;0.80;;;;;;;11.69;57.79;99668.95;106322;1272;22600;-84
2022/05/28 11:58:24;;;;;;;1.90;0.70;;;;;;;12.01;57.78;99660.39;106302;1272;25367;-82
2022/05/28 12:01:00;;;;;;;2.10;0.60;;;;;;;12.12;56.36;99655.33;106474;1271;22480;-80
2022/05/28 12:03:30;;;;;;;2.30;0.70;;;;;;;11.96;55.77;99645.50;106289;1274;22523;-84
2022/05/28 12:06:18;;;;;;;0.90;0.60;;;;;;;12.15;55.29;99649.98;106515;1271;22491;-83